Welcome to Des Moines Iowa Weather. I am an independent private personal weather station on the Northwest Side of Des Moines, Iowa. Just East of Windsor Heights and just West of Glendale . This site is also mobile friendly.

There are no active watches, warnings or advisories


Visit our other weather sites:

Historical Data

Weather Station Setup



Weather Underground History page Text

Daily Summary for January 21, 2018 Units:  Metric    English   Both
« Previous Day
Next Day »
Daily Weekly Monthly Yearly Custom
  High: Low: Average:
Temperature: 4.9 °C 3.3 °C 4.1 °C
Dew Point: 4.4 °C 2.2 °C 3.4 °C
Humidity: 97 % 92 % 95 %
Wind Speed: 11.3 km/h 0 km/h 1.6 km/h
Wind Gust: 17.7 km/h - -
Wind:- - NE
Pressure: 1012.8 hPa 1002.6 hPa -
Precipitation: 7.62 mm    
Historical Graphs
 
 
Tabular Data for January 21, 2018
Time Temperature Dew Point Pressure Wind Wind Speed Wind Gust Humidity Rainfall Rate (Hourly)
00:03 3.8 °C 2.8 °C 1012.8 hPa Calm     92 % 0 mm
00:18 3.8 °C 2.8 °C 1012.8 hPa Calm     92 % 0 mm
00:33 3.7 °C 2.8 °C 1012.4 hPa Calm     92 % 0 mm
00:48 3.7 °C 2.8 °C 1012.1 hPa ENE 3.2 km/h 6.4 km/h 92 % 0 mm
01:03 3.8 °C 2.8 °C 1012.1 hPa Calm   3.2 km/h 92 % 0 mm
01:18 3.8 °C 2.8 °C 1012.1 hPa Calm     92 % 0 mm
02:03 3.7 °C 2.8 °C 1012.1 hPa Calm     92 % 0 mm
02:33 3.7 °C 2.8 °C 1012.1 hPa ENE 1.6 km/h 4.8 km/h 92 % 0 mm
02:48 3.6 °C 2.2 °C 1012.1 hPa Calm   3.2 km/h 92 % 0 mm
03:03 3.6 °C 2.2 °C 1012.1 hPa Calm   4.8 km/h 92 % 0 mm
03:18 3.5 °C 2.2 °C 1012.1 hPa Calm     92 % 0 mm
03:33 3.5 °C 2.2 °C 1012.1 hPa ENE 1.6 km/h 4.8 km/h 92 % 0 mm
03:48 3.5 °C 2.2 °C 1011.7 hPa Calm   3.2 km/h 92 % 0 mm
04:03 3.4 °C 2.2 °C 1011.7 hPa Calm   4.8 km/h 92 % 0 mm
04:18 3.4 °C 2.2 °C 1011.7 hPa Calm   4.8 km/h 93 % 0 mm
04:34 3.4 °C 2.2 °C 1011.7 hPa Calm   3.2 km/h 93 % 0 mm
04:49 3.4 °C 2.2 °C 1011.7 hPa Calm   3.2 km/h 93 % 0 mm
05:04 3.4 °C 2.2 °C 1011.4 hPa Calm   6.4 km/h 93 % 0 mm
05:19 3.5 °C 2.8 °C 1011.4 hPa Calm   4.8 km/h 94 % 0 mm
05:34 3.5 °C 2.8 °C 1011.4 hPa Calm   3.2 km/h 94 % 0 mm
05:49 3.4 °C 2.8 °C 1011.4 hPa NE 1.6 km/h 4.8 km/h 94 % 0 mm
06:04 3.5 °C 2.8 °C 1011.4 hPa Calm   4.8 km/h 94 % 0 mm
06:19 3.5 °C 2.8 °C 1011.4 hPa Calm     94 % 0 mm
06:34 3.5 °C 2.8 °C 1011.4 hPa Calm   1.6 km/h 94 % 0 mm
06:49 3.4 °C 2.8 °C 1011.4 hPa Calm     94 % 0 mm
07:04 3.4 °C 2.8 °C 1011.4 hPa Calm     94 % 0 mm
07:19 3.5 °C 2.8 °C 1011.1 hPa NE 3.2 km/h 3.2 km/h 95 % 0 mm
07:34 3.6 °C 2.8 °C 1011.1 hPa Calm   3.2 km/h 95 % 0 mm
07:49 3.6 °C 2.8 °C 1011.1 hPa Calm   3.2 km/h 95 % 0 mm
08:04 3.6 °C 2.8 °C 1011.1 hPa Calm     95 % 0 mm
08:19 3.6 °C 2.8 °C 1011.1 hPa Calm   3.2 km/h 95 % 0 mm
08:34 3.7 °C 2.8 °C 1011.1 hPa Calm   4.8 km/h 95 % 0 mm
08:49 3.8 °C 3.3 °C 1011.1 hPa Calm   6.4 km/h 95 % 0 mm
09:04 3.8 °C 3.3 °C 1011.1 hPa ENE 1.6 km/h 4.8 km/h 95 % 0 mm
09:19 3.9 °C 3.3 °C 1011.1 hPa Calm   4.8 km/h 95 % 0 mm
09:34 4 °C 3.3 °C 1011.1 hPa Calm   6.4 km/h 95 % 0 mm
09:49 4.1 °C 3.3 °C 1010.7 hPa Calm   8 km/h 95 % 0 mm
10:04 4.1 °C 3.3 °C 1010.7 hPa Calm   8 km/h 95 % 0 mm
10:19 4.2 °C 3.3 °C 1010.7 hPa Calm   4.8 km/h 95 % 0 mm
10:34 4.3 °C 3.9 °C 1010.7 hPa ENE 3.2 km/h 8 km/h 95 % 0 mm
10:49 4.4 °C 3.9 °C 1010.4 hPa ENE 3.2 km/h 6.4 km/h 95 % 0 mm
11:04 4.6 °C 3.9 °C 1010.4 hPa Calm   8 km/h 95 % 0 mm
11:19 4.8 °C 3.9 °C 1010.4 hPa NE 4.8 km/h 8 km/h 95 % 0 mm
11:34 4.8 °C 3.9 °C 1009.7 hPa NE 3.2 km/h 9.7 km/h 95 % 0 mm
11:49 4.8 °C 3.9 °C 1009.7 hPa Calm   11.3 km/h 95 % 0 mm
12:04 4.8 °C 3.9 °C 1009.4 hPa NE 3.2 km/h 6.4 km/h 95 % 0 mm
12:19 4.8 °C 3.9 °C 1009 hPa Calm   4.8 km/h 95 % 0 mm
12:34 4.8 °C 3.9 °C 1008.7 hPa NE 3.2 km/h 4.8 km/h 95 % 0 mm
12:49 4.8 °C 3.9 °C 1008.4 hPa NE 3.2 km/h 4.8 km/h 95 % 0 mm
13:05 4.8 °C 3.9 °C 1008.4 hPa Calm   4.8 km/h 95 % 0 mm
13:19 4.8 °C 3.9 °C 1008 hPa Calm   6.4 km/h 95 % 0 mm
13:35 4.8 °C 3.9 °C 1007.7 hPa ENE 4.8 km/h 8 km/h 95 % 0 mm
13:50 4.8 °C 4.4 °C 1007.7 hPa NE 1.6 km/h 8 km/h 96 % 0 mm
14:05 4.8 °C 4.4 °C 1007.7 hPa NE 4.8 km/h 6.4 km/h 96 % 0 mm
14:20 4.8 °C 4.4 °C 1007.3 hPa NE 1.6 km/h 6.4 km/h 96 % 0 mm
14:35 4.8 °C 4.4 °C 1007.3 hPa Calm   4.8 km/h 96 % 0 mm
14:50 4.8 °C 4.4 °C 1007.7 hPa ENE 1.6 km/h 9.7 km/h 96 % 0 mm
15:05 4.8 °C 4.4 °C 1007.7 hPa East 3.2 km/h 6.4 km/h 96 % 0 mm
15:35 4.9 °C 4.4 °C 1008 hPa NE 1.6 km/h 6.4 km/h 96 % 0.25 mm
16:05 4.8 °C 4.4 °C 1008 hPa ENE 1.6 km/h 8 km/h 96 % 0.25 mm
16:20 4.8 °C 4.4 °C 1008 hPa Calm   4.8 km/h 96 % 0 mm
16:35 4.8 °C 4.4 °C 1008 hPa Calm   3.2 km/h 96 % 0 mm
16:50 4.7 °C 4.4 °C 1008 hPa Calm   6.4 km/h 96 % 0 mm
17:05 4.7 °C 4.4 °C 1008 hPa Calm   4.8 km/h 96 % 0 mm
17:20 4.7 °C 3.9 °C 1008 hPa Calm   6.4 km/h 96 % 0 mm
17:35 4.7 °C 3.9 °C 1008 hPa Calm   1.6 km/h 96 % 0 mm
17:50 4.6 °C 3.9 °C 1008 hPa Calm   9.7 km/h 96 % 0 mm
18:05 4.5 °C 3.9 °C 1008.4 hPa Calm   3.2 km/h 96 % 0 mm
18:20 4.4 °C 3.9 °C 1008 hPa ENE 1.6 km/h 6.4 km/h 96 % 0 mm
18:35 4.4 °C 3.9 °C 1007.7 hPa Calm   9.7 km/h 97 % 0 mm
18:50 4.3 °C 3.9 °C 1007.7 hPa NE 4.8 km/h 8 km/h 96 % 0 mm
19:05 4.2 °C 3.9 °C 1007.3 hPa Calm   8 km/h 97 % 0 mm
19:20 4.2 °C 3.9 °C 1007.3 hPa ENE 11.3 km/h 12.9 km/h 97 % 0 mm
19:35 4.2 °C 3.9 °C 1007.3 hPa East 4.8 km/h 12.9 km/h 97 % 0 mm
19:50 4.2 °C 3.9 °C 1007.3 hPa Calm   9.7 km/h 97 % 0 mm
20:05 4.1 °C 3.9 °C 1007.3 hPa Calm   9.7 km/h 97 % 0 mm
20:20 4.1 °C 3.9 °C 1007 hPa NE 3.2 km/h 9.7 km/h 97 % 0 mm
20:35 4.1 °C 3.9 °C 1006.7 hPa NNE 4.8 km/h 14.5 km/h 97 % 0 mm
21:05 3.9 °C 3.3 °C 1006 hPa ENE 3.2 km/h 11.3 km/h 97 % 0 mm
21:20 3.8 °C 3.3 °C 1005.6 hPa NE 1.6 km/h 8 km/h 97 % 0 mm
21:50 3.7 °C 3.3 °C 1004.6 hPa NE 3.2 km/h 14.5 km/h 97 % 0 mm
22:05 3.6 °C 3.3 °C 1004.6 hPa NNE 11.3 km/h 12.9 km/h 97 % 0 mm
22:20 3.5 °C 3.3 °C 1004.6 hPa ENE 4.8 km/h 11.3 km/h 97 % 0 mm
22:35 3.4 °C 3.3 °C 1004.6 hPa East 1.6 km/h 12.9 km/h 97 % 0.76 mm
22:50 3.4 °C 3.3 °C 1004.6 hPa NE 4.8 km/h 9.7 km/h 97 % 2.54 mm
23:05 3.4 °C 3.3 °C 1003.9 hPa Calm   12.9 km/h 97 % 3.81 mm
23:35 3.3 °C 2.8 °C 1002.9 hPa NE 9.7 km/h 14.5 km/h 97 % 4.57 mm
23:50 3.3 °C 2.8 °C 1002.6 hPa ENE 8 km/h 17.7 km/h 97 % 4.83 mm
Des Moines Weather and Climate
Compliments of Weather Underground - 2.75 mb

Script developed by  Jim McMurry - jmcmurry@mwt.net Adapted for the template by  Wim van der Kuil - Leuven-Template.eu

You find our weather info also at:

Weather Underground

Equipment we use:

Weather-station
Davis VP2 Plus

Weather-program
Davis Weatherlink.Com

Weather-server
iMac (Retina 4K, 21.5-inch, Late 2015)

Provider
Hostmonster.com

Davis VP2 Plus

Davis Weatherlink.Com

iMac (Retina 4K, 21.5-inch, Late 2015)

Hostmonster.com